createdAt,value
2017-11-17T00:00:11.898Z,26.89
2017-11-17T00:00:24.858Z,26.93
2017-11-17T00:00:38.325Z,26.94
2017-11-17T00:00:51.750Z,27.01
2017-11-17T00:01:04.703Z,26.89
2017-11-17T00:01:19.586Z,26.82
2017-11-17T00:01:33.008Z,26.91
2017-11-17T00:01:45.945Z,26.89
2017-11-17T00:01:59.284Z,26.97
2017-11-17T00:02:12.629Z,27.01
2017-11-17T00:02:25.565Z,26.87
2017-11-17T00:02:38.973Z,26.91
2017-11-17T00:02:52.349Z,26.87
2017-11-17T00:03:05.758Z,26.91
2017-11-17T00:03:19.104Z,26.94
2017-11-17T00:03:31.991Z,26.93
2017-11-17T00:03:45.390Z,26.9
2017-11-17T00:03:57.803Z,26.94
2017-11-17T00:04:11.209Z,26.89
2017-11-17T00:04:25.189Z,26.91
2017-11-17T00:04:38.641Z,26.96
2017-11-17T00:04:52.070Z,26.94
2017-11-17T00:05:05.526Z,26.96
2017-11-17T00:05:19.064Z,26.9
2017-11-17T00:05:32.650Z,26.93
2017-11-17T00:05:46.258Z,26.87
2017-11-17T00:05:59.854Z,26.9
2017-11-17T00:06:13.434Z,26.97
2017-11-17T00:06:26.559Z,27.01
2017-11-17T00:06:40.177Z,26.96
2017-11-17T00:06:53.220Z,26.96
2017-11-17T00:07:06.808Z,26.86
2017-11-17T00:07:19.893Z,26.91
2017-11-17T00:07:33.509Z,26.91
2017-11-17T00:07:47.105Z,26.96
2017-11-17T00:08:00.159Z,26.94
2017-11-17T00:08:13.788Z,26.89
2017-11-17T00:08:27.349Z,26.81
2017-11-17T00:08:40.905Z,26.9
2017-11-17T00:08:54.008Z,26.87
2017-11-17T00:09:07.631Z,26.78
2017-11-17T00:09:21.274Z,26.67
2017-11-17T00:09:34.847Z,26.72
2017-11-17T00:09:48.433Z,26.64
2017-11-17T00:10:01.532Z,26.68
2017-11-17T00:10:15.089Z,26.53
2017-11-17T00:10:28.187Z,26.54
2017-11-17T00:10:41.785Z,26.54
2017-11-17T00:10:55.365Z,26.56
2017-11-17T00:11:08.478Z,26.56
2017-11-17T00:11:22.017Z,26.6
2017-11-17T00:11:34.664Z,26.61
2017-11-17T00:11:48.200Z,26.56
2017-11-17T00:12:02.009Z,26.59
2017-11-17T00:12:15.620Z,26.56
2017-11-17T00:12:29.253Z,26.54
2017-11-17T00:12:42.861Z,26.52
2017-11-17T00:12:56.527Z,26.47
2017-11-17T00:13:10.174Z,26.44
2017-11-17T00:13:23.444Z,26.5
2017-11-17T00:13:36.585Z,26.5
2017-11-17T00:13:50.201Z,26.47
2017-11-17T00:14:02.798Z,26.45
2017-11-17T00:14:16.569Z,26.39
2017-11-17T00:14:30.180Z,26.5
2017-11-17T00:14:44.011Z,26.47
2017-11-17T00:14:58.038Z,26.42
2017-11-17T00:15:11.628Z,26.41
2017-11-17T00:15:24.708Z,26.37
2017-11-17T00:15:38.333Z,26.41
2017-11-17T00:15:51.404Z,26.47
2017-11-17T00:16:04.992Z,26.56
2017-11-17T00:16:18.645Z,26.56
2017-11-17T00:16:32.279Z,26.56
2017-11-17T00:16:45.817Z,26.64
2017-11-17T00:16:59.322Z,26.61
2017-11-17T00:17:12.898Z,26.67
2017-11-17T00:17:26.423Z,26.72
2017-11-17T00:17:39.547Z,26.72
2017-11-17T00:17:52.528Z,26.72
2017-11-17T00:18:06.048Z,26.69
2017-11-17T00:18:19.669Z,26.69
2017-11-17T00:18:33.218Z,26.68
2017-11-17T00:18:46.796Z,26.74
2017-11-17T00:19:00.329Z,26.74
2017-11-17T00:19:13.341Z,26.84
2017-11-17T00:19:26.774Z,26.84
2017-11-17T00:19:40.996Z,26.87
2017-11-17T00:19:54.361Z,26.9
2017-11-17T00:20:07.658Z,26.86
2017-11-17T00:20:20.885Z,26.82
2017-11-17T00:20:34.142Z,26.94
2017-11-17T00:20:47.386Z,26.78
2017-11-17T00:21:00.745Z,26.81
2017-11-17T00:21:13.534Z,26.89
2017-11-17T00:21:26.790Z,26.81
2017-11-17T00:21:40.028Z,26.82
2017-11-17T00:21:52.738Z,26.81
2017-11-17T00:22:05.443Z,26.81
2017-11-17T00:22:18.625Z,26.86
2017-11-17T00:22:31.374Z,26.87
2017-11-17T00:22:43.586Z,26.81
2017-11-17T00:22:56.256Z,26.84
2017-11-17T00:23:09.380Z,26.9
2017-11-17T00:23:22.093Z,26.89
2017-11-17T00:23:35.267Z,26.89
2017-11-17T00:23:48.460Z,26.89
2017-11-17T00:24:01.630Z,26.91
2017-11-17T00:24:13.357Z,26.9
2017-11-17T00:24:26.501Z,26.9
2017-11-17T00:24:39.634Z,26.81
2017-11-17T00:24:52.734Z,26.96
2017-11-17T00:25:05.400Z,26.93
2017-11-17T00:25:17.594Z,26.82
2017-11-17T00:25:30.717Z,26.86
2017-11-17T00:25:43.871Z,26.86
2017-11-17T00:25:56.969Z,26.82
2017-11-17T00:26:09.578Z,26.84
2017-11-17T00:26:22.235Z,26.89
2017-11-17T00:26:35.321Z,26.84
2017-11-17T00:26:48.428Z,26.87
2017-11-17T00:27:01.550Z,26.89
2017-11-17T00:27:14.678Z,26.81
2017-11-17T00:27:27.829Z,26.82
2017-11-17T00:27:40.514Z,26.76
2017-11-17T00:27:53.598Z,26.76
2017-11-17T00:28:06.706Z,26.74
2017-11-17T00:28:18.411Z,26.63
2017-11-17T00:28:31.699Z,26.67
2017-11-17T00:28:44.982Z,26.53
2017-11-17T00:28:58.218Z,26.47
2017-11-17T00:29:10.445Z,26.41
2017-11-17T00:29:23.160Z,26.53
2017-11-17T00:29:36.340Z,26.44
2017-11-17T00:29:49.624Z,26.56
2017-11-17T00:30:02.898Z,26.52
2017-11-17T00:30:15.311Z,26.52
2017-11-17T00:30:28.627Z,26.56
2017-11-17T00:30:41.868Z,26.53
2017-11-17T00:30:54.677Z,26.54
2017-11-17T00:31:07.953Z,26.67
2017-11-17T00:31:21.288Z,26.57
2017-11-17T00:31:34.616Z,26.64
2017-11-17T00:31:48.091Z,26.57
2017-11-17T00:32:01.438Z,26.63
2017-11-17T00:32:14.722Z,26.54
2017-11-17T00:32:28.055Z,26.63
2017-11-17T00:32:41.502Z,26.6
2017-11-17T00:32:54.810Z,26.54
2017-11-17T00:33:08.113Z,26.57
2017-11-17T00:33:21.387Z,26.53
2017-11-17T00:33:34.716Z,26.54
2017-11-17T00:33:48.069Z,26.54
2017-11-17T00:34:01.343Z,26.67
2017-11-17T00:34:14.110Z,26.61
2017-11-17T00:34:27.042Z,26.56
2017-11-17T00:34:39.681Z,26.56
2017-11-17T00:34:52.535Z,26.52
2017-11-17T00:35:06.043Z,26.54
2017-11-17T00:35:18.967Z,26.56
2017-11-17T00:35:32.336Z,26.6
2017-11-17T00:35:45.629Z,26.54
2017-11-17T00:35:59.024Z,26.56
2017-11-17T00:36:11.769Z,26.52
2017-11-17T00:36:24.616Z,26.52
2017-11-17T00:36:37.791Z,26.45
2017-11-17T00:36:50.973Z,26.47
2017-11-17T00:37:04.222Z,26.5
2017-11-17T00:37:17.566Z,26.45
2017-11-17T00:37:30.373Z,26.41
2017-11-17T00:37:43.512Z,26.41
2017-11-17T00:37:56.178Z,26.42
2017-11-17T00:38:09.310Z,26.38
2017-11-17T00:38:22.050Z,26.42
2017-11-17T00:38:34.727Z,26.45
2017-11-17T00:38:47.934Z,26.41
2017-11-17T00:39:01.081Z,26.49
2017-11-17T00:39:14.326Z,26.5
2017-11-17T00:39:27.136Z,26.5
2017-11-17T00:39:40.464Z,26.47
2017-11-17T00:39:53.302Z,26.41
2017-11-17T00:40:06.569Z,26.44
2017-11-17T00:40:19.862Z,26.45
2017-11-17T00:40:33.159Z,26.54
2017-11-17T00:40:46.425Z,26.57
2017-11-17T00:40:59.668Z,26.54
2017-11-17T00:41:13.022Z,26.64
2017-11-17T00:41:26.223Z,26.69
2017-11-17T00:41:39.592Z,26.63
2017-11-17T00:41:52.869Z,26.61
2017-11-17T00:42:06.105Z,26.63
2017-11-17T00:42:19.370Z,26.54
2017-11-17T00:42:32.692Z,26.53
2017-11-17T00:42:45.530Z,26.54
2017-11-17T00:42:58.852Z,26.56
2017-11-17T00:43:12.054Z,26.54
2017-11-17T00:43:24.420Z,26.63
2017-11-17T00:43:37.715Z,26.64
2017-11-17T00:43:50.996Z,26.71
2017-11-17T00:44:04.257Z,26.64
2017-11-17T00:44:16.536Z,26.67
2017-11-17T00:44:29.792Z,26.78
2017-11-17T00:44:43.042Z,26.76
2017-11-17T00:44:56.275Z,26.87
2017-11-17T00:45:09.106Z,26.84
2017-11-17T00:45:22.421Z,26.89
2017-11-17T00:45:35.620Z,26.89
2017-11-17T00:45:48.891Z,26.89
2017-11-17T00:46:01.620Z,26.9
2017-11-17T00:46:14.858Z,26.96
2017-11-17T00:46:27.565Z,26.91
2017-11-17T00:46:40.337Z,26.94
2017-11-17T00:46:53.687Z,26.87
2017-11-17T00:47:07.018Z,26.91
2017-11-17T00:47:20.391Z,26.97
2017-11-17T00:47:33.259Z,27.04
2017-11-17T00:47:46.605Z,26.94
2017-11-17T00:48:00.071Z,26.99
2017-11-17T00:48:13.400Z,27.09
2017-11-17T00:48:26.237Z,26.99
2017-11-17T00:48:39.684Z,27.12
2017-11-17T00:48:52.474Z,27.06
2017-11-17T00:49:05.776Z,27.11
2017-11-17T00:49:19.231Z,27.18
2017-11-17T00:49:32.485Z,27.21
2017-11-17T00:49:46.576Z,27.19
2017-11-17T00:49:59.960Z,27.31
2017-11-17T00:50:13.285Z,27.31
2017-11-17T00:50:26.519Z,27.33
2017-11-17T00:50:38.831Z,27.31
2017-11-17T00:50:52.176Z,27.33
2017-11-17T00:51:05.559Z,27.36
2017-11-17T00:51:19.215Z,27.31
2017-11-17T00:51:32.667Z,27.33
2017-11-17T00:51:45.983Z,27.33
2017-11-17T00:51:59.320Z,27.34
2017-11-17T00:52:12.794Z,27.34
2017-11-17T00:52:26.199Z,27.21
2017-11-17T00:52:39.575Z,27.13
2017-11-17T00:52:52.963Z,27.12
2017-11-17T00:53:06.409Z,27.08
2017-11-17T00:53:19.976Z,26.99
2017-11-17T00:53:33.453Z,27.06
2017-11-17T00:53:46.863Z,26.99
2017-11-17T00:54:00.353Z,26.91
2017-11-17T00:54:13.890Z,26.99
2017-11-17T00:54:26.769Z,26.91
2017-11-17T00:54:39.835Z,26.93
2017-11-17T00:54:53.236Z,26.87
2017-11-17T00:55:06.726Z,26.94
2017-11-17T00:55:20.093Z,26.9
2017-11-17T00:55:32.975Z,26.93
2017-11-17T00:55:46.481Z,26.9
2017-11-17T00:55:59.978Z,26.79
2017-11-17T00:56:13.575Z,26.81
2017-11-17T00:56:27.176Z,26.81
2017-11-17T00:56:40.549Z,26.82
2017-11-17T00:56:53.982Z,26.82
2017-11-17T00:57:07.463Z,26.75
2017-11-17T00:57:20.974Z,26.74
2017-11-17T00:57:34.001Z,26.74
2017-11-17T00:57:47.546Z,26.74
2017-11-17T00:58:00.824Z,26.76
2017-11-17T00:58:14.253Z,26.78
2017-11-17T00:58:27.252Z,26.79
2017-11-17T00:58:40.716Z,26.75
2017-11-17T00:58:53.732Z,26.84
2017-11-17T00:59:07.213Z,26.75
2017-11-17T00:59:20.150Z,26.82
2017-11-17T00:59:33.610Z,26.82
2017-11-17T00:59:46.711Z,26.84
2017-11-17T00:59:59.691Z,26.9
2017-11-17T01:00:14.721Z,26.84
2017-11-17T01:00:28.101Z,26.94
2017-11-17T01:00:41.569Z,26.89
2017-11-17T01:00:55.113Z,26.97
2017-11-17T01:01:07.522Z,26.9
2017-11-17T01:01:20.059Z,26.84
2017-11-17T01:01:33.528Z,26.93
2017-11-17T01:01:46.372Z,27.01
2017-11-17T01:01:59.718Z,27.01
2017-11-17T01:02:12.969Z,27.05
2017-11-17T01:02:25.839Z,27.05
2017-11-17T01:02:39.316Z,27.04
2017-11-17T01:02:52.781Z,27.05
2017-11-17T01:03:06.273Z,27
2017-11-17T01:03:19.609Z,27.05
2017-11-17T01:03:32.690Z,27.09
2017-11-17T01:03:46.205Z,27.12
2017-11-17T01:03:59.151Z,27
2017-11-17T01:04:12.673Z,27.09
2017-11-17T01:04:25.088Z,27.11
2017-11-17T01:04:38.135Z,27.11
2017-11-17T01:04:52.588Z,27.04
2017-11-17T01:05:05.534Z,27.13
2017-11-17T01:05:19.299Z,27.05
2017-11-17T01:05:32.794Z,27.04
2017-11-17T01:05:46.296Z,26.97
2017-11-17T01:05:59.714Z,26.94
2017-11-17T01:06:13.193Z,26.99
2017-11-17T01:06:26.692Z,26.94
2017-11-17T01:06:40.237Z,27
2017-11-17T01:06:53.572Z,26.89
2017-11-17T01:07:07.386Z,26.97
2017-11-17T01:07:20.766Z,26.96
2017-11-17T01:07:34.058Z,26.89
2017-11-17T01:07:47.462Z,26.87
2017-11-17T01:07:59.697Z,26.89
2017-11-17T01:08:12.704Z,27.01
2017-11-17T01:08:26.186Z,26.97
2017-11-17T01:08:39.562Z,26.94
2017-11-17T01:08:52.535Z,26.99
2017-11-17T01:09:05.948Z,27.01
2017-11-17T01:09:18.886Z,27.01
2017-11-17T01:09:32.251Z,27.06
2017-11-17T01:09:45.649Z,27
2017-11-17T01:09:59.071Z,26.96
2017-11-17T01:10:12.536Z,26.99
2017-11-17T01:10:25.506Z,27.04
2017-11-17T01:10:38.572Z,27.04
2017-11-17T01:10:51.984Z,27.01
2017-11-17T01:11:04.826Z,27
2017-11-17T01:11:18.047Z,27.12
2017-11-17T01:11:31.020Z,27.11
2017-11-17T01:11:44.067Z,27.05
2017-11-17T01:11:57.493Z,27.16
2017-11-17T01:12:10.536Z,27.15
2017-11-17T01:12:23.937Z,27
2017-11-17T01:12:37.216Z,27.04
2017-11-17T01:12:50.603Z,27.04
2017-11-17T01:13:04.154Z,27.15
2017-11-17T01:13:17.638Z,26.97
2017-11-17T01:13:30.989Z,27.15
2017-11-17T01:13:43.975Z,27.05
2017-11-17T01:13:57.478Z,26.97
2017-11-17T01:14:10.886Z,27.01
2017-11-17T01:14:24.249Z,27
2017-11-17T01:14:37.770Z,26.94
2017-11-17T01:14:51.356Z,26.91
2017-11-17T01:15:04.194Z,26.9
2017-11-17T01:15:17.575Z,26.89
2017-11-17T01:15:30.992Z,26.91
2017-11-17T01:15:43.900Z,26.91
2017-11-17T01:15:57.295Z,26.76
2017-11-17T01:16:10.757Z,26.91
2017-11-17T01:16:24.168Z,26.74
2017-11-17T01:16:37.461Z,26.74
2017-11-17T01:16:50.422Z,26.67
2017-11-17T01:17:03.820Z,26.69
2017-11-17T01:17:16.712Z,26.68
2017-11-17T01:17:30.171Z,26.63
2017-11-17T01:17:43.518Z,26.67
2017-11-17T01:17:56.706Z,26.71
2017-11-17T01:18:09.922Z,26.72
2017-11-17T01:18:23.082Z,26.68
2017-11-17T01:18:36.220Z,26.64
2017-11-17T01:18:49.433Z,26.56
2017-11-17T01:19:02.514Z,26.54
2017-11-17T01:19:15.172Z,26.53
2017-11-17T01:19:28.319Z,26.54
2017-11-17T01:19:41.560Z,26.54
2017-11-17T01:19:54.718Z,26.59
2017-11-17T01:20:08.700Z,26.56
2017-11-17T01:20:21.384Z,26.52
2017-11-17T01:20:34.073Z,26.56
2017-11-17T01:20:47.242Z,26.53
2017-11-17T01:21:00.431Z,26.61
2017-11-17T01:21:13.123Z,26.56
2017-11-17T01:21:26.279Z,26.54
2017-11-17T01:21:38.968Z,26.52
2017-11-17T01:21:52.086Z,26.57
2017-11-17T01:22:05.236Z,26.56
2017-11-17T01:22:18.355Z,26.47
2017-11-17T01:22:31.430Z,26.39
2017-11-17T01:22:44.092Z,26.31
2017-11-17T01:22:57.223Z,26.3
2017-11-17T01:23:10.347Z,26.35
2017-11-17T01:23:23.468Z,26.27
2017-11-17T01:23:36.668Z,26.32
2017-11-17T01:23:49.799Z,26.35
2017-11-17T01:24:02.937Z,26.31
2017-11-17T01:24:15.608Z,26.35
2017-11-17T01:24:28.753Z,26.3
2017-11-17T01:24:41.904Z,26.35
2017-11-17T01:24:55.056Z,26.31
2017-11-17T01:25:08.204Z,26.34
2017-11-17T01:25:21.328Z,26.41
2017-11-17T01:25:34.432Z,26.41
2017-11-17T01:25:47.572Z,26.42
2017-11-17T01:26:00.709Z,26.45
2017-11-17T01:26:13.397Z,26.41
2017-11-17T01:26:26.576Z,26.47
2017-11-17T01:26:39.679Z,26.45
2017-11-17T01:26:52.825Z,26.45
2017-11-17T01:27:05.986Z,26.42
2017-11-17T01:27:18.679Z,26.5
2017-11-17T01:27:31.357Z,26.49
2017-11-17T01:27:44.433Z,26.5
2017-11-17T01:27:57.615Z,26.5
2017-11-17T01:28:10.750Z,26.6
2017-11-17T01:28:23.906Z,26.5
2017-11-17T01:28:36.590Z,26.57
2017-11-17T01:28:49.762Z,26.67
2017-11-17T01:29:02.872Z,26.6
2017-11-17T01:29:16.065Z,26.5
2017-11-17T01:29:29.194Z,26.52
2017-11-17T01:29:42.298Z,26.52
2017-11-17T01:29:55.393Z,26.45
2017-11-17T01:30:08.085Z,26.45
2017-11-17T01:30:21.220Z,26.45
2017-11-17T01:30:34.366Z,26.47
2017-11-17T01:30:47.502Z,26.5
2017-11-17T01:31:00.678Z,26.47
2017-11-17T01:31:13.892Z,26.45
2017-11-17T01:31:27.057Z,26.45
2017-11-17T01:31:40.185Z,26.41
2017-11-17T01:31:52.875Z,26.39
2017-11-17T01:32:06.069Z,26.47
2017-11-17T01:32:19.221Z,26.42
2017-11-17T01:32:32.351Z,26.44
2017-11-17T01:32:45.445Z,26.44
2017-11-17T01:32:58.083Z,26.42
2017-11-17T01:33:10.732Z,26.42
2017-11-17T01:33:23.909Z,26.45
2017-11-17T01:33:37.082Z,26.34
2017-11-17T01:33:50.195Z,26.3
2017-11-17T01:34:03.314Z,26.31
2017-11-17T01:34:16.437Z,26.3
2017-11-17T01:34:29.073Z,26.3
2017-11-17T01:34:41.720Z,26.24
2017-11-17T01:34:54.891Z,26.23
2017-11-17T01:35:08.837Z,26.2
2017-11-17T01:35:21.451Z,26.17
2017-11-17T01:35:34.151Z,26.17
2017-11-17T01:35:47.280Z,26.27
2017-11-17T01:36:00.416Z,26.23
2017-11-17T01:36:13.541Z,26.19
2017-11-17T01:36:26.608Z,26.16
2017-11-17T01:36:39.756Z,26.12
2017-11-17T01:36:52.902Z,26.09
2017-11-17T01:37:05.556Z,26.12
2017-11-17T01:37:18.672Z,26.17
2017-11-17T01:37:31.803Z,26.15
2017-11-17T01:37:44.935Z,26.15
2017-11-17T01:37:58.102Z,26.09
2017-11-17T01:38:10.801Z,26.15
2017-11-17T01:38:23.969Z,26.09
2017-11-17T01:38:37.095Z,26.12
2017-11-17T01:38:50.239Z,26.2
2017-11-17T01:39:03.361Z,26.2
2017-11-17T01:39:16.100Z,26.16
2017-11-17T01:39:29.279Z,26.35
2017-11-17T01:39:41.970Z,26.37
2017-11-17T01:39:54.542Z,26.3
2017-11-17T01:40:07.665Z,26.34
2017-11-17T01:40:20.353Z,26.45
2017-11-17T01:40:33.007Z,26.44
2017-11-17T01:40:46.134Z,26.39
2017-11-17T01:40:58.740Z,26.39
2017-11-17T01:41:11.842Z,26.3
2017-11-17T01:41:24.531Z,26.41
2017-11-17T01:41:37.257Z,26.42
2017-11-17T01:41:50.369Z,26.37
2017-11-17T01:42:03.545Z,26.35
2017-11-17T01:42:16.223Z,26.31
2017-11-17T01:42:29.350Z,26.35
2017-11-17T01:42:42.534Z,26.34
2017-11-17T01:42:55.629Z,26.31
2017-11-17T01:43:08.801Z,26.38
2017-11-17T01:43:21.541Z,26.3
2017-11-17T01:43:34.724Z,26.3
2017-11-17T01:43:47.867Z,26.37
2017-11-17T01:44:01.119Z,26.35
2017-11-17T01:44:13.760Z,26.32
2017-11-17T01:44:26.878Z,26.31
2017-11-17T01:44:40.019Z,26.31
2017-11-17T01:44:53.186Z,26.2
2017-11-17T01:45:05.909Z,26.19
2017-11-17T01:45:19.134Z,26.2
2017-11-17T01:45:32.365Z,26.16
2017-11-17T01:45:45.559Z,26.26
2017-11-17T01:45:57.791Z,26.19
2017-11-17T01:46:10.415Z,26.32
2017-11-17T01:46:23.578Z,26.2
2017-11-17T01:46:36.744Z,26.19
2017-11-17T01:46:49.884Z,26.16
2017-11-17T01:47:03.040Z,26.22
2017-11-17T01:47:16.252Z,26.16
2017-11-17T01:47:29.482Z,26.15
2017-11-17T01:47:42.186Z,26.16
2017-11-17T01:47:55.331Z,26.23
2017-11-17T01:48:08.492Z,26.26
2017-11-17T01:48:21.646Z,26.19
2017-11-17T01:48:34.790Z,26.26
2017-11-17T01:48:47.913Z,26.19
2017-11-17T01:49:01.082Z,26.17
2017-11-17T01:49:14.188Z,26.12
2017-11-17T01:49:27.363Z,26.15
2017-11-17T01:49:40.019Z,26.06
2017-11-17T01:49:53.130Z,26.11
2017-11-17T01:50:05.791Z,26.12
2017-11-17T01:50:19.242Z,26.03
2017-11-17T01:50:31.902Z,25.94
2017-11-17T01:50:45.052Z,26
2017-11-17T01:50:58.213Z,26.06
2017-11-17T01:51:10.869Z,26.03
2017-11-17T01:51:23.981Z,26.07
2017-11-17T01:51:37.096Z,26.06
2017-11-17T01:51:49.731Z,26.07
2017-11-17T01:52:02.845Z,26.12
2017-11-17T01:52:15.515Z,26.03
2017-11-17T01:52:28.172Z,26.07
2017-11-17T01:52:41.373Z,26.03
2017-11-17T01:52:54.470Z,26.12
2017-11-17T01:53:07.622Z,26.04
2017-11-17T01:53:20.809Z,26.11
2017-11-17T01:53:34.018Z,26.16
2017-11-17T01:53:47.181Z,26.09
2017-11-17T01:53:59.864Z,26.16
2017-11-17T01:54:13.008Z,26.07
2017-11-17T01:54:26.192Z,26.06
2017-11-17T01:54:39.366Z,26.12
2017-11-17T01:54:52.075Z,26.07
2017-11-17T01:55:05.210Z,26.15
2017-11-17T01:55:18.394Z,26.04
2017-11-17T01:55:31.557Z,26.07
2017-11-17T01:55:44.208Z,26.15
2017-11-17T01:55:57.294Z,26.23
2017-11-17T01:56:09.539Z,26.19
2017-11-17T01:56:22.733Z,26.15
2017-11-17T01:56:35.893Z,26.3
2017-11-17T01:56:49.058Z,26.24
2017-11-17T01:57:01.694Z,26.27
2017-11-17T01:57:14.443Z,26.3
2017-11-17T01:57:27.647Z,26.23
2017-11-17T01:57:40.876Z,26.19
2017-11-17T01:57:54.173Z,26.17
2017-11-17T01:58:07.509Z,26.24
2017-11-17T01:58:20.878Z,26.16
2017-11-17T01:58:34.115Z,26.15
2017-11-17T01:58:47.394Z,26.16
2017-11-17T01:59:00.771Z,26.06
2017-11-17T01:59:14.091Z,25.96
2017-11-17T01:59:27.222Z,25.94
2017-11-17T01:59:40.530Z,25.96
2017-11-17T01:59:53.867Z,25.93
2017-11-17T02:00:06.992Z,26.01
2017-11-17T02:00:20.212Z,26.01
2017-11-17T02:00:33.387Z,26.04
2017-11-17T02:00:46.563Z,26.16
2017-11-17T02:00:59.757Z,26.12
2017-11-17T02:01:12.423Z,26.16
2017-11-17T02:01:25.591Z,26.17
2017-11-17T02:01:38.756Z,26.2
2017-11-17T02:01:51.438Z,26.17
2017-11-17T02:02:04.132Z,26.24
2017-11-17T02:02:17.286Z,26.23
2017-11-17T02:02:30.472Z,26.34
2017-11-17T02:02:43.114Z,26.32
2017-11-17T02:02:56.193Z,26.35
2017-11-17T02:03:09.356Z,26.34
2017-11-17T02:03:22.527Z,26.42
2017-11-17T02:03:35.601Z,26.44
2017-11-17T02:03:48.704Z,26.41
2017-11-17T02:04:01.818Z,26.44
2017-11-17T02:04:14.921Z,26.42
2017-11-17T02:04:28.060Z,26.38
2017-11-17T02:04:40.694Z,26.39
2017-11-17T02:04:53.847Z,26.41
2017-11-17T02:05:06.958Z,26.41
2017-11-17T02:05:19.921Z,26.45
2017-11-17T02:05:33.043Z,26.42
2017-11-17T02:05:46.192Z,26.5
2017-11-17T02:05:59.358Z,26.45
2017-11-17T02:06:12.472Z,26.44
2017-11-17T02:06:25.577Z,26.44
2017-11-17T02:06:38.716Z,26.35
2017-11-17T02:06:51.424Z,26.41
2017-11-17T02:07:04.491Z,26.35
2017-11-17T02:07:17.644Z,26.41
2017-11-17T02:07:30.757Z,26.42
2017-11-17T02:07:43.458Z,26.42
2017-11-17T02:07:56.060Z,26.44
2017-11-17T02:08:09.170Z,26.49
2017-11-17T02:08:22.328Z,26.47
2017-11-17T02:08:35.432Z,26.49
2017-11-17T02:08:48.570Z,26.41
2017-11-17T02:09:01.681Z,26.47
2017-11-17T02:09:14.829Z,26.41
2017-11-17T02:09:27.981Z,26.47
2017-11-17T02:09:41.166Z,26.5
2017-11-17T02:09:54.332Z,26.45
2017-11-17T02:10:07.523Z,26.5
2017-11-17T02:10:20.686Z,26.49
2017-11-17T02:10:33.849Z,26.41
2017-11-17T02:10:47.022Z,26.52
2017-11-17T02:11:00.115Z,26.49
2017-11-17T02:11:13.246Z,26.53
2017-11-17T02:11:26.404Z,26.39
2017-11-17T02:11:39.559Z,26.5
2017-11-17T02:11:52.702Z,26.49
2017-11-17T02:12:05.848Z,26.34
2017-11-17T02:12:18.972Z,26.34
2017-11-17T02:12:32.117Z,26.42
2017-11-17T02:12:45.278Z,26.32
2017-11-17T02:12:57.956Z,26.42
2017-11-17T02:13:11.143Z,26.34
2017-11-17T02:13:24.307Z,26.27
2017-11-17T02:13:37.408Z,26.37
2017-11-17T02:13:50.060Z,26.27
2017-11-17T02:14:02.694Z,26.34
2017-11-17T02:14:15.830Z,26.37
2017-11-17T02:14:28.950Z,26.27
2017-11-17T02:14:42.133Z,26.37
2017-11-17T02:14:55.239Z,26.35
2017-11-17T02:15:08.432Z,26.31
2017-11-17T02:15:21.583Z,26.39
2017-11-17T02:15:34.743Z,26.34
2017-11-17T02:15:47.860Z,26.3
2017-11-17T02:16:00.958Z,26.35
2017-11-17T02:16:14.123Z,26.34
2017-11-17T02:16:27.311Z,26.34
2017-11-17T02:16:40.424Z,26.3
2017-11-17T02:16:53.604Z,26.34
2017-11-17T02:17:06.268Z,26.42
2017-11-17T02:17:19.371Z,26.41
2017-11-17T02:17:32.522Z,26.41
2017-11-17T02:17:45.614Z,26.47
2017-11-17T02:17:58.288Z,26.44
2017-11-17T02:18:11.388Z,26.42
2017-11-17T02:18:24.531Z,26.27
2017-11-17T02:18:37.641Z,26.32
2017-11-17T02:18:50.771Z,26.34
2017-11-17T02:19:03.902Z,26.35
2017-11-17T02:19:16.982Z,26.41
2017-11-17T02:19:30.090Z,26.42
2017-11-17T02:19:43.239Z,26.47
2017-11-17T02:19:56.305Z,26.42
2017-11-17T02:20:09.515Z,26.45
2017-11-17T02:20:23.521Z,26.41
2017-11-17T02:20:36.249Z,26.41
2017-11-17T02:20:49.464Z,26.44
2017-11-17T02:21:02.155Z,26.52
2017-11-17T02:21:14.821Z,26.45
2017-11-17T02:21:27.968Z,26.39
2017-11-17T02:21:41.094Z,26.31
2017-11-17T02:21:53.733Z,26.35
2017-11-17T02:22:06.882Z,26.34
2017-11-17T02:22:20.076Z,26.31
2017-11-17T02:22:33.234Z,26.31
2017-11-17T02:22:46.374Z,26.32
2017-11-17T02:22:59.022Z,26.27
2017-11-17T02:23:11.731Z,26.19
2017-11-17T02:23:24.853Z,26.3
2017-11-17T02:23:37.990Z,26.2
2017-11-17T02:23:51.101Z,26.2
2017-11-17T02:24:03.726Z,26.23
2017-11-17T02:24:16.864Z,26.23
2017-11-17T02:24:29.949Z,26.19
2017-11-17T02:24:43.028Z,26.32
2017-11-17T02:24:56.189Z,26.19
2017-11-17T02:25:08.864Z,26.23
2017-11-17T02:25:22.040Z,26.23
2017-11-17T02:25:35.163Z,26.2
2017-11-17T02:25:48.282Z,26.07
2017-11-17T02:26:01.462Z,26.17
2017-11-17T02:26:14.135Z,26.07
2017-11-17T02:26:27.202Z,26.15
2017-11-17T02:26:39.830Z,26.19
2017-11-17T02:26:52.943Z,26.22
2017-11-17T02:27:05.569Z,26.16
2017-11-17T02:27:18.767Z,26.22
2017-11-17T02:27:31.931Z,26.17
2017-11-17T02:27:45.106Z,26.22
2017-11-17T02:27:58.304Z,26.26
2017-11-17T02:28:11.037Z,26.35
2017-11-17T02:28:23.674Z,26.27
2017-11-17T02:28:36.841Z,26.37
2017-11-17T02:28:49.971Z,26.34
2017-11-17T02:29:03.108Z,26.31
2017-11-17T02:29:16.216Z,26.39
2017-11-17T02:29:29.333Z,26.32
2017-11-17T02:29:42.485Z,26.34
2017-11-17T02:29:55.629Z,26.32
2017-11-17T02:30:08.313Z,26.31
2017-11-17T02:30:21.412Z,26.37
2017-11-17T02:30:34.510Z,26.26
2017-11-17T02:30:47.652Z,26.3
2017-11-17T02:31:00.785Z,26.22
2017-11-17T02:31:13.441Z,26.19
2017-11-17T02:31:26.814Z,26.16
2017-11-17T02:31:39.521Z,26.19
2017-11-17T02:31:52.668Z,26.19
2017-11-17T02:32:05.832Z,26.2
2017-11-17T02:32:18.491Z,26.11
2017-11-17T02:32:31.607Z,26.11
2017-11-17T02:32:44.679Z,26.16
2017-11-17T02:32:57.763Z,26.15
2017-11-17T02:33:10.900Z,26.16
2017-11-17T02:33:24.122Z,26.16
2017-11-17T02:33:37.311Z,26.17
2017-11-17T02:33:49.955Z,26.19
2017-11-17T02:34:03.066Z,26.16
2017-11-17T02:34:16.190Z,26.15
2017-11-17T02:34:29.319Z,26.16
2017-11-17T02:34:42.509Z,26.16
2017-11-17T02:34:55.652Z,26.19
2017-11-17T02:35:08.739Z,26.12
2017-11-17T02:35:21.900Z,26.06
2017-11-17T02:35:35.566Z,26.01
2017-11-17T02:35:48.716Z,25.97
2017-11-17T02:36:01.809Z,25.91
2017-11-17T02:36:14.938Z,25.93
2017-11-17T02:36:28.022Z,25.85
2017-11-17T02:36:41.147Z,25.85
2017-11-17T02:36:54.292Z,25.89
2017-11-17T02:37:07.465Z,25.88
2017-11-17T02:37:20.614Z,25.85
2017-11-17T02:37:33.756Z,25.93
2017-11-17T02:37:46.873Z,25.78
2017-11-17T02:38:00.055Z,25.71
2017-11-17T02:38:13.265Z,25.74
2017-11-17T02:38:25.943Z,25.66
2017-11-17T02:38:39.140Z,25.64
2017-11-17T02:38:52.294Z,25.67
2017-11-17T02:39:05.467Z,25.63
2017-11-17T02:39:18.612Z,25.64
2017-11-17T02:39:31.988Z,25.57
2017-11-17T02:39:44.673Z,25.59
2017-11-17T02:39:57.854Z,25.6
2017-11-17T02:40:10.579Z,25.64
2017-11-17T02:40:23.233Z,25.64
2017-11-17T02:40:36.363Z,25.63
2017-11-17T02:40:49.508Z,25.63
2017-11-17T02:41:02.201Z,25.69
2017-11-17T02:41:15.339Z,25.7
2017-11-17T02:41:28.409Z,25.71
2017-11-17T02:41:41.607Z,25.74
2017-11-17T02:41:54.697Z,25.74
2017-11-17T02:42:07.797Z,25.71
2017-11-17T02:42:20.899Z,25.74
2017-11-17T02:42:34.064Z,25.84
2017-11-17T02:42:47.249Z,25.75
2017-11-17T02:42:59.916Z,25.78
2017-11-17T02:43:12.543Z,25.76
2017-11-17T02:43:25.707Z,25.84
2017-11-17T02:43:38.881Z,25.79
2017-11-17T02:43:52.095Z,25.86
2017-11-17T02:44:05.286Z,25.93
2017-11-17T02:44:31.126Z,25.76
2017-11-17T02:44:43.796Z,25.85
2017-11-17T02:44:56.908Z,25.94
2017-11-17T02:45:09.669Z,25.99
2017-11-17T02:45:23.062Z,25.91
2017-11-17T02:45:36.209Z,25.89
2017-11-17T02:45:49.300Z,25.96
2017-11-17T02:46:01.968Z,25.91
2017-11-17T02:46:14.121Z,25.88
2017-11-17T02:46:27.274Z,26.01
2017-11-17T02:46:40.391Z,25.97
2017-11-17T02:46:53.528Z,25.97
2017-11-17T02:47:06.669Z,25.89
2017-11-17T02:47:19.788Z,25.99
2017-11-17T02:47:32.429Z,26
2017-11-17T02:47:45.541Z,25.99
2017-11-17T02:47:58.630Z,25.97
2017-11-17T02:48:11.747Z,25.99
2017-11-17T02:48:24.910Z,25.99
2017-11-17T02:48:38.077Z,25.94
2017-11-17T02:48:51.282Z,25.97
2017-11-17T02:49:03.961Z,25.88
2017-11-17T02:49:17.102Z,25.89
2017-11-17T02:49:30.264Z,25.86
2017-11-17T02:49:42.923Z,25.84
2017-11-17T02:49:56.029Z,25.85
2017-11-17T02:50:08.706Z,25.85